KBBG

Details ICAO KBBG (BKG)
Name Branson Regional Airport
Region United States
Timezone America/Chicago (UTC-6.0)
Plans Departing 5
Arriving 22
Stats Elevation 1,303 ft / 397 m (AMSL)
Location 36.532082° -93.200545°
Runways 1
Magnetic Variation 0.815° E
Sunrise 2017-12-15 13:19:06 UTC / 2017-12-15 07:19:06 Local
Sunset 2017-12-15 22:59:50 UTC / 2017-12-15 16:59:50 Local
Advertisement - Login to hide

Runways

ID Width Length Bearing (true) Bearing (mag) Surface Threshold Offset Overrun Length
14 148 ft / 45 m 7,147 ft / 2,178 m 145.13° 144.32° Concrete 0 ft / 0 m 200 ft / 61 m
32 148 ft / 45 m 7,147 ft / 2,178 m 325.14° 324.33° Concrete 0 ft / 0 m 200 ft / 61 m

Map

Weather


0- 5 10 15 20 25 30 35+ Temperature / ° C

Clouds and Precipitation
Forecast for 2017-12-16 00:00 UTC. Updated 30 minutes ago

Ground ~20,000 ft ~40,000 ft Winds

METAR

KBBG 152245Z 26005KT 10SM SKC 06/M04 A3011

TAF

TAF AMD KBBG 151911Z 1519/1618 29010KT P6SM SCT035 FM152000 26008KT P6SM BKN035 FM160300 20005KT P6SM SKC WS015/25035KT FM161500 19014G20KT P6SM SKC
Warning: Do not use this data for real-world aviation or navigation. No guarantee of current accuracy is given.